sensor_id;sensor_type;location;lat;lon;timestamp;temperature;humidity
18648;DHT22;9453;50.294;18.644;2023-07-30T04:01:06;16.80;99.90
18648;DHT22;9453;50.294;18.644;2023-07-30T04:03:34;16.80;99.90
18648;DHT22;9453;50.294;18.644;2023-07-30T04:06:01;16.80;99.90
18648;DHT22;9453;50.294;18.644;2023-07-30T04:08:28;16.80;99.90
18648;DHT22;9453;50.294;18.644;2023-07-30T04:10:55;16.80;99.90
18648;DHT22;9453;50.294;18.644;2023-07-30T04:13:22;16.80;99.90
18648;DHT22;9453;50.294;18.644;2023-07-30T04:15:49;16.90;99.90
18648;DHT22;9453;50.294;18.644;2023-07-30T04:18:17;16.90;99.90
18648;DHT22;9453;50.294;18.644;2023-07-30T04:20:45;17.00;99.90
18648;DHT22;9453;50.294;18.644;2023-07-30T04:23:12;17.00;99.90
18648;DHT22;9453;50.294;18.644;2023-07-30T04:25:39;17.10;99.90
18648;DHT22;9453;50.294;18.644;2023-07-30T04:28:06;17.10;99.90
18648;DHT22;9453;50.294;18.644;2023-07-30T04:30:33;17.10;99.90
18648;DHT22;9453;50.294;18.644;2023-07-30T04:32:59;17.10;99.90
18648;DHT22;9453;50.294;18.644;2023-07-30T04:35:28;17.20;99.90
18648;DHT22;9453;50.294;18.644;2023-07-30T04:37:55;17.20;99.90
18648;DHT22;9453;50.294;18.644;2023-07-30T04:40:22;17.30;99.90
18648;DHT22;9453;50.294;18.644;2023-07-30T04:42:49;17.40;99.90
18648;DHT22;9453;50.294;18.644;2023-07-30T04:45:16;17.40;99.90
18648;DHT22;9453;50.294;18.644;2023-07-30T04:47:43;17.50;99.90
18648;DHT22;9453;50.294;18.644;2023-07-30T04:50:09;17.60;99.90
18648;DHT22;9453;50.294;18.644;2023-07-30T04:52:38;17.70;99.90
18648;DHT22;9453;50.294;18.644;2023-07-30T04:55:06;17.80;99.90
18648;DHT22;9453;50.294;18.644;2023-07-30T04:57:33;17.90;99.90
18648;DHT22;9453;50.294;18.644;2023-07-30T05:00:00;18.00;99.90
18648;DHT22;9453;50.294;18.644;2023-07-30T05:02:27;18.20;99.90
18648;DHT22;9453;50.294;18.644;2023-07-30T05:04:54;18.30;99.90
18648;DHT22;9453;50.294;18.644;2023-07-30T05:07:21;18.40;99.90
18648;DHT22;9453;50.294;18.644;2023-07-30T05:09:49;18.50;99.90
18648;DHT22;9453;50.294;18.644;2023-07-30T05:12:16;18.50;99.90
18648;DHT22;9453;50.294;18.644;2023-07-30T05:14:43;18.50;99.90
18648;DHT22;9453;50.294;18.644;2023-07-30T05:17:10;18.70;99.90
18648;DHT22;9453;50.294;18.644;2023-07-30T05:19:37;18.70;99.90
18648;DHT22;9453;50.294;18.644;2023-07-30T05:22:04;18.70;99.90
18648;DHT22;9453;50.294;18.644;2023-07-30T05:24:33;18.80;99.90
18648;DHT22;9453;50.294;18.644;2023-07-30T05:27:04;18.90;99.90
18648;DHT22;9453;50.294;18.644;2023-07-30T05:29:31;19.00;99.90
18648;DHT22;9453;50.294;18.644;2023-07-30T05:31:58;19.10;99.90
18648;DHT22;9453;50.294;18.644;2023-07-30T05:34:25;19.20;99.90
18648;DHT22;9453;50.294;18.644;2023-07-30T05:36:52;19.20;99.90
18648;DHT22;9453;50.294;18.644;2023-07-30T05:39:19;19.40;99.90
18648;DHT22;9453;50.294;18.644;2023-07-30T05:41:46;19.50;99.90
18648;DHT22;9453;50.294;18.644;2023-07-30T05:44:14;19.50;99.90
18648;DHT22;9453;50.294;18.644;2023-07-30T05:46:41;19.60;99.90
18648;DHT22;9453;50.294;18.644;2023-07-30T05:49:08;19.70;99.90
18648;DHT22;9453;50.294;18.644;2023-07-30T05:51:36;19.80;99.90
18648;DHT22;9453;50.294;18.644;2023-07-30T05:54:03;19.90;99.90
18648;DHT22;9453;50.294;18.644;2023-07-30T05:56:30;20.00;99.90
18648;DHT22;9453;50.294;18.644;2023-07-30T05:58:57;20.00;99.90
18648;DHT22;9453;50.294;18.644;2023-07-30T06:01:25;20.10;99.90
18648;DHT22;9453;50.294;18.644;2023-07-30T06:03:52;20.20;99.90
18648;DHT22;9453;50.294;18.644;2023-07-30T06:06:19;20.40;99.90
18648;DHT22;9453;50.294;18.644;2023-07-30T06:08:52;20.40;99.90
18648;DHT22;9453;50.294;18.644;2023-07-30T06:11:19;20.50;99.90
18648;DHT22;9453;50.294;18.644;2023-07-30T06:13:46;20.60;99.90
18648;DHT22;9453;50.294;18.644;2023-07-30T06:16:13;20.60;99.90
18648;DHT22;9453;50.294;18.644;2023-07-30T06:18:41;20.70;99.90
18648;DHT22;9453;50.294;18.644;2023-07-30T06:21:08;20.70;99.90
18648;DHT22;9453;50.294;18.644;2023-07-30T06:23:35;20.80;99.90
18648;DHT22;9453;50.294;18.644;2023-07-30T06:26:02;20.90;99.90
18648;DHT22;9453;50.294;18.644;2023-07-30T06:28:29;21.00;99.90
18648;DHT22;9453;50.294;18.644;2023-07-30T06:30:59;21.10;99.90
18648;DHT22;9453;50.294;18.644;2023-07-30T06:33:26;21.20;99.90
18648;DHT22;9453;50.294;18.644;2023-07-30T06:35:55;21.20;99.90
18648;DHT22;9453;50.294;18.644;2023-07-30T06:38:22;21.30;99.90
18648;DHT22;9453;50.294;18.644;2023-07-30T06:40:49;21.30;99.90
18648;DHT22;9453;50.294;18.644;2023-07-30T06:43:16;21.30;99.90
18648;DHT22;9453;50.294;18.644;2023-07-30T06:45:43;21.40;99.90
18648;DHT22;9453;50.294;18.644;2023-07-30T06:48:09;21.40;99.90
18648;DHT22;9453;50.294;18.644;2023-07-30T06:50:37;21.50;99.90
18648;DHT22;9453;50.294;18.644;2023-07-30T06:53:05;21.50;99.90
18648;DHT22;9453;50.294;18.644;2023-07-30T06:55:32;21.60;99.90
18648;DHT22;9453;50.294;18.644;2023-07-30T06:57:59;21.60;99.90
18648;DHT22;9453;50.294;18.644;2023-07-30T07:00:26;21.60;99.90
18648;DHT22;9453;50.294;18.644;2023-07-30T07:02:53;21.60;99.90
18648;DHT22;9453;50.294;18.644;2023-07-30T07:05:20;21.70;99.90
18648;DHT22;9453;50.294;18.644;2023-07-30T07:07:47;21.70;99.90
18648;DHT22;9453;50.294;18.644;2023-07-30T07:10:15;21.70;99.90
18648;DHT22;9453;50.294;18.644;2023-07-30T07:12:42;21.70;99.90
18648;DHT22;9453;50.294;18.644;2023-07-30T07:15:09;21.60;99.90
18648;DHT22;9453;50.294;18.644;2023-07-30T07:17:36;21.80;99.90
18648;DHT22;9453;50.294;18.644;2023-07-30T07:20:03;21.90;99.90
18648;DHT22;9453;50.294;18.644;2023-07-30T07:22:32;21.90;99.90
18648;DHT22;9453;50.294;18.644;2023-07-30T07:24:59;22.00;99.90
18648;DHT22;9453;50.294;18.644;2023-07-30T07:27:27;22.00;99.70
18648;DHT22;9453;50.294;18.644;2023-07-30T07:29:54;22.00;99.90
18648;DHT22;9453;50.294;18.644;2023-07-30T07:32:21;22.10;99.90
18648;DHT22;9453;50.294;18.644;2023-07-30T07:34:49;22.10;99.90
18648;DHT22;9453;50.294;18.644;2023-07-30T07:37:16;21.90;99.60
18648;DHT22;9453;50.294;18.644;2023-07-30T07:39:44;21.90;99.90
18648;DHT22;9453;50.294;18.644;2023-07-30T07:42:12;21.90;99.90
18648;DHT22;9453;50.294;18.644;2023-07-30T07:44:40;21.80;99.90
18648;DHT22;9453;50.294;18.644;2023-07-30T07:47:09;21.80;99.90
18648;DHT22;9453;50.294;18.644;2023-07-30T07:49:36;21.70;99.40
18648;DHT22;9453;50.294;18.644;2023-07-30T07:52:03;21.80;99.60
18648;DHT22;9453;50.294;18.644;2023-07-30T07:54:30;21.90;99.90
18648;DHT22;9453;50.294;18.644;2023-07-30T07:56:57;21.90;99.90
18648;DHT22;9453;50.294;18.644;2023-07-30T07:59:24;22.00;99.90
18648;DHT22;9453;50.294;18.644;2023-07-30T08:01:52;22.10;99.90
18648;DHT22;9453;50.294;18.644;2023-07-30T08:04:19;22.20;99.90
18648;DHT22;9453;50.294;18.644;2023-07-30T08:06:47;22.30;99.90
18648;DHT22;9453;50.294;18.644;2023-07-30T08:09:14;22.40;99.90
18648;DHT22;9453;50.294;18.644;2023-07-30T08:11:41;22.50;99.90
18648;DHT22;9453;50.294;18.644;2023-07-30T08:14:08;22.60;99.00
18648;DHT22;9453;50.294;18.644;2023-07-30T08:16:35;22.70;98.00
18648;DHT22;9453;50.294;18.644;2023-07-30T08:19:03;22.80;97.80
18648;DHT22;9453;50.294;18.644;2023-07-30T08:21:30;23.00;98.30
18648;DHT22;9453;50.294;18.644;2023-07-30T08:23:57;23.10;97.60
18648;DHT22;9453;50.294;18.644;2023-07-30T08:26:24;23.20;97.50
18648;DHT22;9453;50.294;18.644;2023-07-30T08:28:51;23.30;96.40
18648;DHT22;9453;50.294;18.644;2023-07-30T08:31:18;23.50;97.00
18648;DHT22;9453;50.294;18.644;2023-07-30T08:33:45;23.60;97.60
18648;DHT22;9453;50.294;18.644;2023-07-30T08:36:13;23.70;96.40
18648;DHT22;9453;50.294;18.644;2023-07-30T08:38:40;23.80;95.60
18648;DHT22;9453;50.294;18.644;2023-07-30T08:41:07;23.90;95.20
18648;DHT22;9453;50.294;18.644;2023-07-30T08:43:34;24.00;95.40
18648;DHT22;9453;50.294;18.644;2023-07-30T08:46:05;24.10;94.70
18648;DHT22;9453;50.294;18.644;2023-07-30T08:48:35;24.20;94.60
18648;DHT22;9453;50.294;18.644;2023-07-30T08:51:03;24.40;94.20
18648;DHT22;9453;50.294;18.644;2023-07-30T08:53:31;24.50;93.70
18648;DHT22;9453;50.294;18.644;2023-07-30T08:55:59;24.60;93.50
18648;DHT22;9453;50.294;18.644;2023-07-30T08:58:27;24.60;91.90
18648;DHT22;9453;50.294;18.644;2023-07-30T09:00:55;24.70;92.80
18648;DHT22;9453;50.294;18.644;2023-07-30T09:03:24;24.80;92.80
18648;DHT22;9453;50.294;18.644;2023-07-30T09:05:53;24.90;91.10
18648;DHT22;9453;50.294;18.644;2023-07-30T09:08:20;25.00;91.00
18648;DHT22;9453;50.294;18.644;2023-07-30T09:10:49;25.00;90.00
18648;DHT22;9453;50.294;18.644;2023-07-30T09:13:21;25.00;89.90
18648;DHT22;9453;50.294;18.644;2023-07-30T09:15:49;25.10;90.00
18648;DHT22;9453;50.294;18.644;2023-07-30T09:18:17;25.20;90.00
18648;DHT22;9453;50.294;18.644;2023-07-30T09:20:44;25.20;87.70
18648;DHT22;9453;50.294;18.644;2023-07-30T09:23:11;24.90;86.50
18648;DHT22;9453;50.294;18.644;2023-07-30T09:25:38;25.00;88.80
18648;DHT22;9453;50.294;18.644;2023-07-30T09:28:07;25.00;90.20
18648;DHT22;9453;50.294;18.644;2023-07-30T09:30:33;25.00;90.10
18648;DHT22;9453;50.294;18.644;2023-07-30T09:33:00;25.00;85.90
18648;DHT22;9453;50.294;18.644;2023-07-30T09:35:27;25.00;88.00
18648;DHT22;9453;50.294;18.644;2023-07-30T09:37:58;25.10;92.00
18648;DHT22;9453;50.294;18.644;2023-07-30T09:40:34;25.10;90.70
18648;DHT22;9453;50.294;18.644;2023-07-30T09:43:03;25.10;88.00
18648;DHT22;9453;50.294;18.644;2023-07-30T09:45:33;25.10;85.90
18648;DHT22;9453;50.294;18.644;2023-07-30T09:48:03;25.10;85.30
18648;DHT22;9453;50.294;18.644;2023-07-30T09:50:30;25.10;82.30
18648;DHT22;9453;50.294;18.644;2023-07-30T09:52:58;25.00;81.00
18648;DHT22;9453;50.294;18.644;2023-07-30T09:55:27;25.00;82.50
18648;DHT22;9453;50.294;18.644;2023-07-30T09:57:54;25.10;83.50
18648;DHT22;9453;50.294;18.644;2023-07-30T10:00:21;25.20;83.00
18648;DHT22;9453;50.294;18.644;2023-07-30T10:02:50;25.30;80.20
18648;DHT22;9453;50.294;18.644;2023-07-30T10:05:19;25.40;80.60
18648;DHT22;9453;50.294;18.644;2023-07-30T10:07:49;25.50;80.00
18648;DHT22;9453;50.294;18.644;2023-07-30T10:10:18;25.60;76.70
18648;DHT22;9453;50.294;18.644;2023-07-30T10:12:47;25.80;77.40
18648;DHT22;9453;50.294;18.644;2023-07-30T10:15:18;25.80;76.00
18648;DHT22;9453;50.294;18.644;2023-07-30T10:17:45;26.00;75.80
18648;DHT22;9453;50.294;18.644;2023-07-30T10:20:22;26.20;79.60
18648;DHT22;9453;50.294;18.644;2023-07-30T10:22:52;26.30;81.30
18648;DHT22;9453;50.294;18.644;2023-07-30T10:25:27;26.50;82.20
18648;DHT22;9453;50.294;18.644;2023-07-30T10:27:55;26.50;78.20
18648;DHT22;9453;50.294;18.644;2023-07-30T10:30:22;26.60;78.30
18648;DHT22;9453;50.294;18.644;2023-07-30T10:33:03;26.70;82.80
18648;DHT22;9453;50.294;18.644;2023-07-30T10:35:39;26.70;81.30
18648;DHT22;9453;50.294;18.644;2023-07-30T10:38:17;26.80;79.80
18648;DHT22;9453;50.294;18.644;2023-07-30T10:41:02;26.90;77.90
18648;DHT22;9453;50.294;18.644;2023-07-30T10:43:30;26.80;79.60
18648;DHT22;9453;50.294;18.644;2023-07-30T10:45:57;26.80;82.90
18648;DHT22;9453;50.294;18.644;2023-07-30T10:48:31;26.80;83.60
18648;DHT22;9453;50.294;18.644;2023-07-30T10:51:01;26.90;80.40
18648;DHT22;9453;50.294;18.644;2023-07-30T10:53:28;26.90;77.30
18648;DHT22;9453;50.294;18.644;2023-07-30T10:55:58;26.90;81.40
18648;DHT22;9453;50.294;18.644;2023-07-30T10:58:27;27.00;77.30
18648;DHT22;9453;50.294;18.644;2023-07-30T11:00:54;27.00;78.60
18648;DHT22;9453;50.294;18.644;2023-07-30T11:03:24;26.90;73.50
18648;DHT22;9453;50.294;18.644;2023-07-30T11:05:54;26.80;72.40
18648;DHT22;9453;50.294;18.644;2023-07-30T11:08:32;26.80;73.90
18648;DHT22;9453;50.294;18.644;2023-07-30T11:10:59;26.80;73.20
18648;DHT22;9453;50.294;18.644;2023-07-30T11:13:26;26.80;74.80
18648;DHT22;9453;50.294;18.644;2023-07-30T11:15:53;26.80;79.70
18648;DHT22;9453;50.294;18.644;2023-07-30T11:18:20;26.70;81.30
18648;DHT22;9453;50.294;18.644;2023-07-30T11:20:47;26.70;79.10
18648;DHT22;9453;50.294;18.644;2023-07-30T11:23:19;26.60;81.30
18648;DHT22;9453;50.294;18.644;2023-07-30T11:25:49;26.60;79.50
18648;DHT22;9453;50.294;18.644;2023-07-30T11:28:27;26.60;79.70
18648;DHT22;9453;50.294;18.644;2023-07-30T11:30:59;26.70;77.50
18648;DHT22;9453;50.294;18.644;2023-07-30T11:33:26;26.70;79.50
18648;DHT22;9453;50.294;18.644;2023-07-30T11:35:54;26.60;81.20
18648;DHT22;9453;50.294;18.644;2023-07-30T11:38:22;26.60;81.00
18648;DHT22;9453;50.294;18.644;2023-07-30T11:40:51;26.60;80.30
18648;DHT22;9453;50.294;18.644;2023-07-30T11:43:19;26.60;79.80
18648;DHT22;9453;50.294;18.644;2023-07-30T11:45:46;26.60;80.50
18648;DHT22;9453;50.294;18.644;2023-07-30T11:48:13;26.60;80.00
18648;DHT22;9453;50.294;18.644;2023-07-30T11:50:47;26.60;80.40
18648;DHT22;9453;50.294;18.644;2023-07-30T11:53:14;26.60;80.60
18648;DHT22;9453;50.294;18.644;2023-07-30T11:55:42;26.50;82.20
18648;DHT22;9453;50.294;18.644;2023-07-30T11:58:12;26.40;82.50
18648;DHT22;9453;50.294;18.644;2023-07-30T12:00:40;26.50;83.20
18648;DHT22;9453;50.294;18.644;2023-07-30T12:03:10;26.20;82.40
18648;DHT22;9453;50.294;18.644;2023-07-30T12:05:38;26.20;83.00
18648;DHT22;9453;50.294;18.644;2023-07-30T12:08:13;26.40;80.10
18648;DHT22;9453;50.294;18.644;2023-07-30T12:10:41;26.50;78.10
18648;DHT22;9453;50.294;18.644;2023-07-30T12:13:15;26.60;80.20
18648;DHT22;9453;50.294;18.644;2023-07-30T12:15:44;26.40;83.60
18648;DHT22;9453;50.294;18.644;2023-07-30T12:18:11;26.40;82.10
18648;DHT22;9453;50.294;18.644;2023-07-30T12:20:38;26.50;80.80
18648;DHT22;9453;50.294;18.644;2023-07-30T12:23:05;26.60;79.50
18648;DHT22;9453;50.294;18.644;2023-07-30T12:25:32;26.70;80.70
18648;DHT22;9453;50.294;18.644;2023-07-30T12:27:58;26.70;79.10
18648;DHT22;9453;50.294;18.644;2023-07-30T12:30:27;26.70;77.10
18648;DHT22;9453;50.294;18.644;2023-07-30T12:32:54;26.70;76.90
18648;DHT22;9453;50.294;18.644;2023-07-30T12:35:21;26.40;80.50
18648;DHT22;9453;50.294;18.644;2023-07-30T12:37:48;26.30;80.40
18648;DHT22;9453;50.294;18.644;2023-07-30T12:40:16;26.40;78.90
18648;DHT22;9453;50.294;18.644;2023-07-30T12:42:43;26.40;79.90
18648;DHT22;9453;50.294;18.644;2023-07-30T12:45:10;26.20;80.50
18648;DHT22;9453;50.294;18.644;2023-07-30T12:47:39;26.20;80.60
18648;DHT22;9453;50.294;18.644;2023-07-30T12:50:06;26.20;80.10
18648;DHT22;9453;50.294;18.644;2023-07-30T12:52:33;26.10;80.10
18648;DHT22;9453;50.294;18.644;2023-07-30T12:55:01;26.20;79.80
18648;DHT22;9453;50.294;18.644;2023-07-30T12:57:29;26.30;78.50
18648;DHT22;9453;50.294;18.644;2023-07-30T12:59:56;26.40;77.70
18648;DHT22;9453;50.294;18.644;2023-07-30T13:02:23;26.20;79.40
18648;DHT22;9453;50.294;18.644;2023-07-30T13:04:52;26.30;78.00
18648;DHT22;9453;50.294;18.644;2023-07-30T13:07:19;26.30;78.00
18648;DHT22;9453;50.294;18.644;2023-07-30T13:09:46;26.50;77.10
18648;DHT22;9453;50.294;18.644;2023-07-30T13:12:13;26.60;75.80
18648;DHT22;9453;50.294;18.644;2023-07-30T13:14:40;26.30;78.10
18648;DHT22;9453;50.294;18.644;2023-07-30T13:17:07;26.30;78.10
18648;DHT22;9453;50.294;18.644;2023-07-30T13:19:33;26.40;78.20
18648;DHT22;9453;50.294;18.644;2023-07-30T13:22:02;26.60;76.30
18648;DHT22;9453;50.294;18.644;2023-07-30T13:24:29;26.60;76.00
18648;DHT22;9453;50.294;18.644;2023-07-30T13:26:57;26.60;76.30
18648;DHT22;9453;50.294;18.644;2023-07-30T13:29:24;26.50;75.90
18648;DHT22;9453;50.294;18.644;2023-07-30T13:31:51;26.20;77.60
18648;DHT22;9453;50.294;18.644;2023-07-30T13:34:18;26.20;77.90
18648;DHT22;9453;50.294;18.644;2023-07-30T13:36:44;26.20;76.10
18648;DHT22;9453;50.294;18.644;2023-07-30T13:39:13;26.20;77.00
18648;DHT22;9453;50.294;18.644;2023-07-30T13:41:40;26.30;77.10
18648;DHT22;9453;50.294;18.644;2023-07-30T13:44:07;26.30;77.00
18648;DHT22;9453;50.294;18.644;2023-07-30T13:46:33;26.30;77.20
18648;DHT22;9453;50.294;18.644;2023-07-30T13:49:00;26.30;77.30
18648;DHT22;9453;50.294;18.644;2023-07-30T13:51:28;26.30;77.10
18648;DHT22;9453;50.294;18.644;2023-07-30T13:53:58;26.10;77.70
18648;DHT22;9453;50.294;18.644;2023-07-30T13:56:26;26.00;77.90
18648;DHT22;9453;50.294;18.644;2023-07-30T13:58:54;26.00;78.00
18648;DHT22;9453;50.294;18.644;2023-07-30T14:01:22;26.10;77.50
18648;DHT22;9453;50.294;18.644;2023-07-30T14:03:49;26.40;76.50
18648;DHT22;9453;50.294;18.644;2023-07-30T14:06:16;26.50;76.20
18648;DHT22;9453;50.294;18.644;2023-07-30T14:08:43;26.50;75.90
18648;DHT22;9453;50.294;18.644;2023-07-30T14:11:10;26.70;74.60
18648;DHT22;9453;50.294;18.644;2023-07-30T14:13:38;26.70;73.70
18648;DHT22;9453;50.294;18.644;2023-07-30T14:16:05;26.70;74.70
18648;DHT22;9453;50.294;18.644;2023-07-30T14:18:32;26.80;73.00
18648;DHT22;9453;50.294;18.644;2023-07-30T14:20:59;26.80;73.90
18648;DHT22;9453;50.294;18.644;2023-07-30T14:23:28;26.90;74.50
18648;DHT22;9453;50.294;18.644;2023-07-30T14:25:55;27.00;73.10
18648;DHT22;9453;50.294;18.644;2023-07-30T14:28:22;27.00;74.10
18648;DHT22;9453;50.294;18.644;2023-07-30T14:30:50;27.00;74.10
18648;DHT22;9453;50.294;18.644;2023-07-30T14:33:17;27.20;73.70
18648;DHT22;9453;50.294;18.644;2023-07-30T14:35:44;27.10;73.90
18648;DHT22;9453;50.294;18.644;2023-07-30T14:38:11;27.40;73.30
18648;DHT22;9453;50.294;18.644;2023-07-30T14:40:38;27.80;72.00
18648;DHT22;9453;50.294;18.644;2023-07-30T14:43:05;27.50;72.00
18648;DHT22;9453;50.294;18.644;2023-07-30T14:45:32;27.40;72.00
18648;DHT22;9453;50.294;18.644;2023-07-30T14:48:00;27.40;71.60
18648;DHT22;9453;50.294;18.644;2023-07-30T14:50:27;27.10;72.10
18648;DHT22;9453;50.294;18.644;2023-07-30T14:52:54;26.80;73.00
18648;DHT22;9453;50.294;18.644;2023-07-30T14:55:21;26.50;74.40
18648;DHT22;9453;50.294;18.644;2023-07-30T14:57:48;26.00;76.50
18648;DHT22;9453;50.294;18.644;2023-07-30T15:00:15;25.60;77.70
18648;DHT22;9453;50.294;18.644;2023-07-30T15:02:43;25.40;79.10
18648;DHT22;9453;50.294;18.644;2023-07-30T15:05:11;25.20;80.10
18648;DHT22;9453;50.294;18.644;2023-07-30T15:07:38;24.90;81.00
18648;DHT22;9453;50.294;18.644;2023-07-30T15:10:06;24.80;81.30
18648;DHT22;9453;50.294;18.644;2023-07-30T15:12:33;24.70;82.10
18648;DHT22;9453;50.294;18.644;2023-07-30T15:14:59;24.60;82.60
18648;DHT22;9453;50.294;18.644;2023-07-30T15:17:26;24.50;83.70
18648;DHT22;9453;50.294;18.644;2023-07-30T15:19:53;24.40;84.80
18648;DHT22;9453;50.294;18.644;2023-07-30T15:22:21;24.20;85.60
18648;DHT22;9453;50.294;18.644;2023-07-30T15:24:48;24.00;87.00
18648;DHT22;9453;50.294;18.644;2023-07-30T15:27:15;23.60;89.60
18648;DHT22;9453;50.294;18.644;2023-07-30T15:29:43;23.40;91.20
18648;DHT22;9453;50.294;18.644;2023-07-30T15:32:10;23.00;99.90
18648;DHT22;9453;50.294;18.644;2023-07-30T15:34:37;22.10;99.90
18648;DHT22;9453;50.294;18.644;2023-07-30T15:37:04;21.60;99.90
18648;DHT22;9453;50.294;18.644;2023-07-30T15:39:32;21.40;99.90
18648;DHT22;9453;50.294;18.644;2023-07-30T15:42:00;21.30;99.90
18648;DHT22;9453;50.294;18.644;2023-07-30T15:44:27;21.40;99.90
18648;DHT22;9453;50.294;18.644;2023-07-30T15:46:55;21.40;99.90
18648;DHT22;9453;50.294;18.644;2023-07-30T15:49:22;21.40;99.90
18648;DHT22;9453;50.294;18.644;2023-07-30T15:51:49;21.40;99.90
18648;DHT22;9453;50.294;18.644;2023-07-30T15:54:16;21.50;99.90
18648;DHT22;9453;50.294;18.644;2023-07-30T15:56:45;21.40;99.90
18648;DHT22;9453;50.294;18.644;2023-07-30T15:59:12;21.40;99.90
18648;DHT22;9453;50.294;18.644;2023-07-30T16:01:39;21.40;99.90
18648;DHT22;9453;50.294;18.644;2023-07-30T16:04:06;21.30;99.90
18648;DHT22;9453;50.294;18.644;2023-07-30T16:06:33;21.30;99.90
18648;DHT22;9453;50.294;18.644;2023-07-30T16:09:00;21.20;99.90
18648;DHT22;9453;50.294;18.644;2023-07-30T16:11:27;21.30;99.90
18648;DHT22;9453;50.294;18.644;2023-07-30T16:14:00;21.30;99.90
18648;DHT22;9453;50.294;18.644;2023-07-30T16:16:27;21.40;99.90
18648;DHT22;9453;50.294;18.644;2023-07-30T16:18:54;21.40;99.90
18648;DHT22;9453;50.294;18.644;2023-07-30T16:21:22;21.50;99.90
18648;DHT22;9453;50.294;18.644;2023-07-30T16:23:49;21.50;99.90
18648;DHT22;9453;50.294;18.644;2023-07-30T16:26:17;21.60;99.90
18648;DHT22;9453;50.294;18.644;2023-07-30T16:28:44;21.60;99.90
18648;DHT22;9453;50.294;18.644;2023-07-30T16:31:12;21.60;99.90
18648;DHT22;9453;50.294;18.644;2023-07-30T16:33:39;21.60;99.90
18648;DHT22;9453;50.294;18.644;2023-07-30T16:36:06;21.70;99.90
18648;DHT22;9453;50.294;18.644;2023-07-30T16:38:34;21.80;99.90
18648;DHT22;9453;50.294;18.644;2023-07-30T16:41:01;21.90;99.90
18648;DHT22;9453;50.294;18.644;2023-07-30T16:43:28;22.10;99.90
18648;DHT22;9453;50.294;18.644;2023-07-30T16:45:58;22.20;99.90
18648;DHT22;9453;50.294;18.644;2023-07-30T16:48:28;22.40;99.90
18648;DHT22;9453;50.294;18.644;2023-07-30T16:50:55;22.40;99.90
18648;DHT22;9453;50.294;18.644;2023-07-30T16:53:22;22.50;99.90
18648;DHT22;9453;50.294;18.644;2023-07-30T16:55:49;22.50;99.90
18648;DHT22;9453;50.294;18.644;2023-07-30T16:58:16;22.50;99.90
18648;DHT22;9453;50.294;18.644;2023-07-30T17:00:44;22.50;99.90
18648;DHT22;9453;50.294;18.644;2023-07-30T17:03:11;22.40;99.90
18648;DHT22;9453;50.294;18.644;2023-07-30T17:05:39;22.40;99.90
18648;DHT22;9453;50.294;18.644;2023-07-30T17:08:06;22.30;99.90
18648;DHT22;9453;50.294;18.644;2023-07-30T17:10:37;22.30;99.90
18648;DHT22;9453;50.294;18.644;2023-07-30T17:13:04;22.20;99.90
18648;DHT22;9453;50.294;18.644;2023-07-30T17:15:31;22.10;99.90
18648;DHT22;9453;50.294;18.644;2023-07-30T17:17:58;21.90;99.90
18648;DHT22;9453;50.294;18.644;2023-07-30T17:20:25;21.80;99.90
18648;DHT22;9453;50.294;18.644;2023-07-30T17:22:53;21.70;99.90
18648;DHT22;9453;50.294;18.644;2023-07-30T17:25:20;21.60;99.90
18648;DHT22;9453;50.294;18.644;2023-07-30T17:27:47;21.50;99.90
18648;DHT22;9453;50.294;18.644;2023-07-30T17:30:14;21.50;99.90
18648;DHT22;9453;50.294;18.644;2023-07-30T17:32:40;21.40;99.90
18648;DHT22;9453;50.294;18.644;2023-07-30T17:35:08;21.40;99.90
18648;DHT22;9453;50.294;18.644;2023-07-30T17:37:35;21.30;99.90
18648;DHT22;9453;50.294;18.644;2023-07-30T17:40:08;21.30;99.90
18648;DHT22;9453;50.294;18.644;2023-07-30T17:42:35;21.30;99.90
18648;DHT22;9453;50.294;18.644;2023-07-30T17:45:02;21.30;99.90
18648;DHT22;9453;50.294;18.644;2023-07-30T17:47:29;21.20;99.90
18648;DHT22;9453;50.294;18.644;2023-07-30T17:49:56;21.20;99.90
18648;DHT22;9453;50.294;18.644;2023-07-30T17:52:23;21.20;99.90
18648;DHT22;9453;50.294;18.644;2023-07-30T17:54:50;21.20;99.90
18648;DHT22;9453;50.294;18.644;2023-07-30T17:57:18;21.10;99.90
18648;DHT22;9453;50.294;18.644;2023-07-30T17:59:45;21.10;99.90
18648;DHT22;9453;50.294;18.644;2023-07-30T18:02:12;21.00;99.90
18648;DHT22;9453;50.294;18.644;2023-07-30T18:04:41;21.00;99.90
18648;DHT22;9453;50.294;18.644;2023-07-30T18:07:09;20.90;99.90
18648;DHT22;9453;50.294;18.644;2023-07-30T18:09:36;20.80;99.90
18648;DHT22;9453;50.294;18.644;2023-07-30T18:12:05;20.70;99.90
18648;DHT22;9453;50.294;18.644;2023-07-30T18:14:33;20.60;99.90
18648;DHT22;9453;50.294;18.644;2023-07-30T18:17:01;20.50;99.90
18648;DHT22;9453;50.294;18.644;2023-07-30T18:19:28;20.40;99.90
18648;DHT22;9453;50.294;18.644;2023-07-30T18:21:55;20.30;99.90
18648;DHT22;9453;50.294;18.644;2023-07-30T18:24:22;20.20;99.90
18648;DHT22;9453;50.294;18.644;2023-07-30T18:26:49;20.10;99.90
18648;DHT22;9453;50.294;18.644;2023-07-30T18:29:16;19.90;99.90
18648;DHT22;9453;50.294;18.644;2023-07-30T18:31:45;19.90;99.90
18648;DHT22;9453;50.294;18.644;2023-07-30T18:34:12;19.80;99.90
18648;DHT22;9453;50.294;18.644;2023-07-30T18:36:39;19.80;99.90
18648;DHT22;9453;50.294;18.644;2023-07-30T18:39:05;19.70;99.90
18648;DHT22;9453;50.294;18.644;2023-07-30T18:41:32;19.70;99.90
18648;DHT22;9453;50.294;18.644;2023-07-30T18:44:02;19.70;99.90
18648;DHT22;9453;50.294;18.644;2023-07-30T18:46:29;19.70;99.90
18648;DHT22;9453;50.294;18.644;2023-07-30T18:48:57;19.70;99.90
18648;DHT22;9453;50.294;18.644;2023-07-30T18:51:25;19.60;99.90
18648;DHT22;9453;50.294;18.644;2023-07-30T18:53:53;19.50;99.90
18648;DHT22;9453;50.294;18.644;2023-07-30T18:56:20;19.40;99.90
18648;DHT22;9453;50.294;18.644;2023-07-30T18:58:48;19.40;99.90
18648;DHT22;9453;50.294;18.644;2023-07-30T19:01:15;19.30;99.90
18648;DHT22;9453;50.294;18.644;2023-07-30T19:03:42;19.20;99.90
18648;DHT22;9453;50.294;18.644;2023-07-30T19:06:10;19.20;99.90
18648;DHT22;9453;50.294;18.644;2023-07-30T19:08:37;19.20;99.90
18648;DHT22;9453;50.294;18.644;2023-07-30T19:11:04;19.20;99.90
18648;DHT22;9453;50.294;18.644;2023-07-30T19:13:31;19.20;99.90
18648;DHT22;9453;50.294;18.644;2023-07-30T19:15:58;19.20;99.90
18648;DHT22;9453;50.294;18.644;2023-07-30T19:18:25;19.10;99.90
18648;DHT22;9453;50.294;18.644;2023-07-30T19:20:52;19.10;99.90
18648;DHT22;9453;50.294;18.644;2023-07-30T19:23:21;19.10;99.90
18648;DHT22;9453;50.294;18.644;2023-07-30T19:25:48;19.10;99.90
18648;DHT22;9453;50.294;18.644;2023-07-30T19:28:15;19.10;99.90
18648;DHT22;9453;50.294;18.644;2023-07-30T19:30:43;19.10;99.90
18648;DHT22;9453;50.294;18.644;2023-07-30T19:33:10;19.10;99.90